sensor_id;sensor_type;location;lat;lon;timestamp;temperature;humidity
423;DHT22;198;48.752;9.180;2022-07-29T00:00:10;20.40;99.90
423;DHT22;198;48.752;9.180;2022-07-29T00:02:36;20.50;99.90
423;DHT22;198;48.752;9.180;2022-07-29T00:05:02;20.50;99.90
423;DHT22;198;48.752;9.180;2022-07-29T00:07:28;20.50;99.90
423;DHT22;198;48.752;9.180;2022-07-29T00:09:53;20.60;99.90
423;DHT22;198;48.752;9.180;2022-07-29T00:12:21;20.60;99.90
423;DHT22;198;48.752;9.180;2022-07-29T00:14:46;20.50;99.90
423;DHT22;198;48.752;9.180;2022-07-29T00:17:12;20.50;99.90
423;DHT22;198;48.752;9.180;2022-07-29T00:19:37;20.50;99.90
423;DHT22;198;48.752;9.180;2022-07-29T00:22:03;20.50;99.90
423;DHT22;198;48.752;9.180;2022-07-29T00:24:28;20.40;99.90
423;DHT22;198;48.752;9.180;2022-07-29T00:26:54;20.40;99.90
423;DHT22;198;48.752;9.180;2022-07-29T00:29:19;20.40;99.90
423;DHT22;198;48.752;9.180;2022-07-29T00:31:45;20.30;99.90
423;DHT22;198;48.752;9.180;2022-07-29T00:34:10;20.30;99.90
423;DHT22;198;48.752;9.180;2022-07-29T00:36:54;20.20;99.90
423;DHT22;198;48.752;9.180;2022-07-29T00:39:20;20.20;99.90
423;DHT22;198;48.752;9.180;2022-07-29T00:41:46;20.20;99.90
423;DHT22;198;48.752;9.180;2022-07-29T00:44:11;20.10;99.90
423;DHT22;198;48.752;9.180;2022-07-29T00:46:37;20.10;99.90
423;DHT22;198;48.752;9.180;2022-07-29T00:49:02;20.10;99.90
423;DHT22;198;48.752;9.180;2022-07-29T00:51:28;20.00;99.90
423;DHT22;198;48.752;9.180;2022-07-29T00:53:55;20.00;99.90
423;DHT22;198;48.752;9.180;2022-07-29T00:56:21;20.00;99.90
423;DHT22;198;48.752;9.180;2022-07-29T00:58:48;20.00;99.90
423;DHT22;198;48.752;9.180;2022-07-29T01:01:15;19.90;99.90
423;DHT22;198;48.752;9.180;2022-07-29T01:03:41;19.90;99.90
423;DHT22;198;48.752;9.180;2022-07-29T01:06:06;19.80;99.90
423;DHT22;198;48.752;9.180;2022-07-29T01:08:32;19.80;99.90
423;DHT22;198;48.752;9.180;2022-07-29T01:10:59;19.80;99.90
423;DHT22;198;48.752;9.180;2022-07-29T01:13:27;19.80;99.90
423;DHT22;198;48.752;9.180;2022-07-29T01:15:57;19.80;99.90
423;DHT22;198;48.752;9.180;2022-07-29T01:18:33;19.80;99.90
423;DHT22;198;48.752;9.180;2022-07-29T01:21:24;19.80;99.90
423;DHT22;198;48.752;9.180;2022-07-29T01:26:43;19.70;99.90
423;DHT22;198;48.752;9.180;2022-07-29T01:29:11;19.70;99.90
423;DHT22;198;48.752;9.180;2022-07-29T01:31:52;19.60;99.90
423;DHT22;198;48.752;9.180;2022-07-29T01:34:27;19.60;99.90
423;DHT22;198;48.752;9.180;2022-07-29T01:37:20;19.60;99.90
423;DHT22;198;48.752;9.180;2022-07-29T01:39:49;19.50;99.90
423;DHT22;198;48.752;9.180;2022-07-29T01:42:44;19.50;99.90
423;DHT22;198;48.752;9.180;2022-07-29T01:45:32;19.50;99.90
423;DHT22;198;48.752;9.180;2022-07-29T01:48:06;19.50;99.90
423;DHT22;198;48.752;9.180;2022-07-29T01:50:48;19.50;99.90
423;DHT22;198;48.752;9.180;2022-07-29T01:53:25;19.50;99.90
423;DHT22;198;48.752;9.180;2022-07-29T01:55:52;19.40;99.90
423;DHT22;198;48.752;9.180;2022-07-29T01:58:19;19.40;99.90
423;DHT22;198;48.752;9.180;2022-07-29T02:00:46;19.50;99.90
423;DHT22;198;48.752;9.180;2022-07-29T02:03:14;19.40;99.90
423;DHT22;198;48.752;9.180;2022-07-29T02:05:43;19.40;99.90
423;DHT22;198;48.752;9.180;2022-07-29T02:08:09;19.40;99.90
423;DHT22;198;48.752;9.180;2022-07-29T02:10:36;19.40;99.90
423;DHT22;198;48.752;9.180;2022-07-29T02:13:04;19.40;99.90
423;DHT22;198;48.752;9.180;2022-07-29T02:15:33;19.30;99.90
423;DHT22;198;48.752;9.180;2022-07-29T02:18:09;19.30;99.90
423;DHT22;198;48.752;9.180;2022-07-29T02:20:37;19.20;99.90
423;DHT22;198;48.752;9.180;2022-07-29T02:23:06;19.30;99.90
423;DHT22;198;48.752;9.180;2022-07-29T02:25:32;19.20;99.90
423;DHT22;198;48.752;9.180;2022-07-29T02:27:59;19.20;99.90
423;DHT22;198;48.752;9.180;2022-07-29T02:30:26;19.20;99.90
423;DHT22;198;48.752;9.180;2022-07-29T02:32:53;19.30;99.90
423;DHT22;198;48.752;9.180;2022-07-29T02:35:20;19.20;99.90
423;DHT22;198;48.752;9.180;2022-07-29T02:37:47;19.10;99.90
423;DHT22;198;48.752;9.180;2022-07-29T02:40:34;19.10;99.90
423;DHT22;198;48.752;9.180;2022-07-29T02:43:05;19.20;99.90
423;DHT22;198;48.752;9.180;2022-07-29T02:45:32;19.10;99.90
423;DHT22;198;48.752;9.180;2022-07-29T02:47:59;19.10;99.90
423;DHT22;198;48.752;9.180;2022-07-29T02:50:35;19.10;99.90
423;DHT22;198;48.752;9.180;2022-07-29T02:53:09;19.10;99.90
423;DHT22;198;48.752;9.180;2022-07-29T02:55:40;19.10;99.90
423;DHT22;198;48.752;9.180;2022-07-29T02:58:21;19.10;99.90
423;DHT22;198;48.752;9.180;2022-07-29T03:00:48;19.20;99.90
423;DHT22;198;48.752;9.180;2022-07-29T03:03:18;19.20;99.90
423;DHT22;198;48.752;9.180;2022-07-29T03:05:44;19.20;99.90
423;DHT22;198;48.752;9.180;2022-07-29T03:08:11;19.10;99.90
423;DHT22;198;48.752;9.180;2022-07-29T03:10:39;19.10;99.90
423;DHT22;198;48.752;9.180;2022-07-29T03:13:05;19.10;99.90
423;DHT22;198;48.752;9.180;2022-07-29T03:15:34;19.10;99.90
423;DHT22;198;48.752;9.180;2022-07-29T03:18:00;19.10;99.90
423;DHT22;198;48.752;9.180;2022-07-29T03:20:26;19.00;99.90
423;DHT22;198;48.752;9.180;2022-07-29T03:22:52;19.10;99.90
423;DHT22;198;48.752;9.180;2022-07-29T03:25:18;19.10;99.90
423;DHT22;198;48.752;9.180;2022-07-29T03:27:45;19.00;99.90
423;DHT22;198;48.752;9.180;2022-07-29T03:30:12;18.90;99.90
423;DHT22;198;48.752;9.180;2022-07-29T03:32:39;19.00;99.90
423;DHT22;198;48.752;9.180;2022-07-29T03:35:05;19.00;99.90
423;DHT22;198;48.752;9.180;2022-07-29T03:37:30;19.00;99.90
423;DHT22;198;48.752;9.180;2022-07-29T03:39:58;19.00;99.90
423;DHT22;198;48.752;9.180;2022-07-29T03:42:27;19.00;99.90
423;DHT22;198;48.752;9.180;2022-07-29T03:44:55;19.00;99.90
423;DHT22;198;48.752;9.180;2022-07-29T03:47:24;19.00;99.90
423;DHT22;198;48.752;9.180;2022-07-29T03:49:57;19.00;99.90
423;DHT22;198;48.752;9.180;2022-07-29T03:52:25;19.00;99.90
423;DHT22;198;48.752;9.180;2022-07-29T03:54:51;19.00;99.90
423;DHT22;198;48.752;9.180;2022-07-29T03:57:18;18.90;99.90
423;DHT22;198;48.752;9.180;2022-07-29T03:59:45;19.00;99.90
423;DHT22;198;48.752;9.180;2022-07-29T04:02:11;19.00;99.90
423;DHT22;198;48.752;9.180;2022-07-29T04:04:37;19.00;99.90
423;DHT22;198;48.752;9.180;2022-07-29T04:07:03;18.90;99.90
423;DHT22;198;48.752;9.180;2022-07-29T04:09:29;18.90;99.90
423;DHT22;198;48.752;9.180;2022-07-29T04:11:55;18.90;99.90
423;DHT22;198;48.752;9.180;2022-07-29T04:14:20;18.90;99.90
423;DHT22;198;48.752;9.180;2022-07-29T04:16:46;18.90;99.90
423;DHT22;198;48.752;9.180;2022-07-29T04:19:12;18.90;99.90
423;DHT22;198;48.752;9.180;2022-07-29T04:21:41;18.90;99.90
423;DHT22;198;48.752;9.180;2022-07-29T04:24:07;18.90;99.90
423;DHT22;198;48.752;9.180;2022-07-29T04:26:33;18.90;99.90
423;DHT22;198;48.752;9.180;2022-07-29T04:28:59;19.00;99.90
423;DHT22;198;48.752;9.180;2022-07-29T04:31:24;19.00;99.90
423;DHT22;198;48.752;9.180;2022-07-29T04:33:50;19.10;99.90
423;DHT22;198;48.752;9.180;2022-07-29T04:36:16;19.10;99.90
423;DHT22;198;48.752;9.180;2022-07-29T04:38:41;19.10;99.90
423;DHT22;198;48.752;9.180;2022-07-29T04:41:07;19.00;99.90
423;DHT22;198;48.752;9.180;2022-07-29T04:43:34;19.00;99.90
423;DHT22;198;48.752;9.180;2022-07-29T04:46:00;19.00;99.90
423;DHT22;198;48.752;9.180;2022-07-29T04:48:26;19.10;99.90
423;DHT22;198;48.752;9.180;2022-07-29T04:50:51;19.10;99.90
423;DHT22;198;48.752;9.180;2022-07-29T04:53:17;19.20;99.90
423;DHT22;198;48.752;9.180;2022-07-29T04:55:43;19.30;99.90
423;DHT22;198;48.752;9.180;2022-07-29T04:58:10;19.40;99.90
423;DHT22;198;48.752;9.180;2022-07-29T05:00:36;19.40;99.90
423;DHT22;198;48.752;9.180;2022-07-29T05:03:02;19.50;99.90
423;DHT22;198;48.752;9.180;2022-07-29T05:05:28;19.60;99.90
423;DHT22;198;48.752;9.180;2022-07-29T05:07:53;19.60;99.90
423;DHT22;198;48.752;9.180;2022-07-29T05:10:19;19.60;99.90
423;DHT22;198;48.752;9.180;2022-07-29T05:12:44;19.70;99.90
423;DHT22;198;48.752;9.180;2022-07-29T05:15:10;19.70;99.90
423;DHT22;198;48.752;9.180;2022-07-29T05:17:35;19.80;99.90
423;DHT22;198;48.752;9.180;2022-07-29T05:20:01;19.80;99.90
423;DHT22;198;48.752;9.180;2022-07-29T05:22:26;19.90;99.90
423;DHT22;198;48.752;9.180;2022-07-29T05:24:52;19.90;99.90
423;DHT22;198;48.752;9.180;2022-07-29T05:27:17;20.00;99.90
423;DHT22;198;48.752;9.180;2022-07-29T05:29:43;20.10;99.90
423;DHT22;198;48.752;9.180;2022-07-29T05:32:08;20.10;99.90
423;DHT22;198;48.752;9.180;2022-07-29T05:34:34;20.20;99.90
423;DHT22;198;48.752;9.180;2022-07-29T05:36:59;20.30;99.90
423;DHT22;198;48.752;9.180;2022-07-29T05:39:25;20.40;99.90
423;DHT22;198;48.752;9.180;2022-07-29T05:41:50;20.50;99.90
423;DHT22;198;48.752;9.180;2022-07-29T05:44:16;20.60;99.90
423;DHT22;198;48.752;9.180;2022-07-29T05:46:42;20.70;99.90
423;DHT22;198;48.752;9.180;2022-07-29T05:49:07;20.70;99.90
423;DHT22;198;48.752;9.180;2022-07-29T05:51:33;20.70;99.90
423;DHT22;198;48.752;9.180;2022-07-29T05:53:59;20.80;99.90
423;DHT22;198;48.752;9.180;2022-07-29T05:56:25;20.90;99.90
423;DHT22;198;48.752;9.180;2022-07-29T05:58:51;21.00;99.90
423;DHT22;198;48.752;9.180;2022-07-29T06:01:17;21.00;99.90
423;DHT22;198;48.752;9.180;2022-07-29T06:03:42;21.10;99.90
423;DHT22;198;48.752;9.180;2022-07-29T06:06:08;21.20;99.90
423;DHT22;198;48.752;9.180;2022-07-29T06:08:34;21.20;99.90
423;DHT22;198;48.752;9.180;2022-07-29T06:11:00;21.20;99.90
423;DHT22;198;48.752;9.180;2022-07-29T06:13:26;21.30;99.90
423;DHT22;198;48.752;9.180;2022-07-29T06:15:52;21.30;99.90
423;DHT22;198;48.752;9.180;2022-07-29T06:18:17;21.30;99.90
423;DHT22;198;48.752;9.180;2022-07-29T06:20:43;21.40;99.90
423;DHT22;198;48.752;9.180;2022-07-29T06:23:09;21.50;99.90
423;DHT22;198;48.752;9.180;2022-07-29T06:25:35;21.70;99.90
423;DHT22;198;48.752;9.180;2022-07-29T06:28:02;21.90;99.90
423;DHT22;198;48.752;9.180;2022-07-29T06:30:28;22.00;99.90
423;DHT22;198;48.752;9.180;2022-07-29T06:32:54;22.20;99.90
423;DHT22;198;48.752;9.180;2022-07-29T06:35:21;22.30;99.90
423;DHT22;198;48.752;9.180;2022-07-29T06:37:47;22.50;99.90
423;DHT22;198;48.752;9.180;2022-07-29T06:40:12;22.60;99.90
423;DHT22;198;48.752;9.180;2022-07-29T06:42:56;22.60;99.90
423;DHT22;198;48.752;9.180;2022-07-29T06:45:22;22.80;99.90
423;DHT22;198;48.752;9.180;2022-07-29T06:47:47;23.00;99.90
423;DHT22;198;48.752;9.180;2022-07-29T06:50:15;23.00;99.90
423;DHT22;198;48.752;9.180;2022-07-29T06:52:40;23.00;99.90
423;DHT22;198;48.752;9.180;2022-07-29T06:55:06;23.10;99.90
423;DHT22;198;48.752;9.180;2022-07-29T06:57:33;23.10;99.90
423;DHT22;198;48.752;9.180;2022-07-29T06:59:58;23.10;99.90
423;DHT22;198;48.752;9.180;2022-07-29T07:02:24;23.20;99.90
423;DHT22;198;48.752;9.180;2022-07-29T07:04:50;23.30;99.90
423;DHT22;198;48.752;9.180;2022-07-29T07:07:15;23.40;99.90
423;DHT22;198;48.752;9.180;2022-07-29T07:09:41;23.50;99.90
423;DHT22;198;48.752;9.180;2022-07-29T07:12:06;23.50;99.90
423;DHT22;198;48.752;9.180;2022-07-29T07:14:32;23.60;99.90
423;DHT22;198;48.752;9.180;2022-07-29T07:16:58;23.70;99.90
423;DHT22;198;48.752;9.180;2022-07-29T07:19:25;23.80;99.90
423;DHT22;198;48.752;9.180;2022-07-29T07:21:52;23.90;99.90
423;DHT22;198;48.752;9.180;2022-07-29T07:24:18;23.90;99.90
423;DHT22;198;48.752;9.180;2022-07-29T07:26:43;24.00;99.90
423;DHT22;198;48.752;9.180;2022-07-29T07:29:09;23.90;99.90
423;DHT22;198;48.752;9.180;2022-07-29T07:31:36;23.90;99.90
423;DHT22;198;48.752;9.180;2022-07-29T07:34:02;23.90;99.90
423;DHT22;198;48.752;9.180;2022-07-29T07:36:27;23.90;99.90
423;DHT22;198;48.752;9.180;2022-07-29T07:38:53;23.80;99.90
423;DHT22;198;48.752;9.180;2022-07-29T07:41:19;23.80;99.90
423;DHT22;198;48.752;9.180;2022-07-29T07:43:44;23.80;99.90
423;DHT22;198;48.752;9.180;2022-07-29T07:46:10;23.80;99.90
423;DHT22;198;48.752;9.180;2022-07-29T07:48:35;23.80;99.90
423;DHT22;198;48.752;9.180;2022-07-29T07:51:01;24.00;99.90
423;DHT22;198;48.752;9.180;2022-07-29T07:53:26;24.20;99.90
423;DHT22;198;48.752;9.180;2022-07-29T07:55:52;24.40;99.90
423;DHT22;198;48.752;9.180;2022-07-29T07:58:18;24.50;99.90
423;DHT22;198;48.752;9.180;2022-07-29T08:00:43;24.50;99.90
423;DHT22;198;48.752;9.180;2022-07-29T08:03:09;24.50;99.90
423;DHT22;198;48.752;9.180;2022-07-29T08:05:38;24.30;99.90
423;DHT22;198;48.752;9.180;2022-07-29T08:08:03;24.20;99.90
423;DHT22;198;48.752;9.180;2022-07-29T08:10:29;24.10;99.90
423;DHT22;198;48.752;9.180;2022-07-29T08:13:13;24.20;99.90
423;DHT22;198;48.752;9.180;2022-07-29T08:15:39;24.40;99.90
423;DHT22;198;48.752;9.180;2022-07-29T08:18:06;24.50;99.90
423;DHT22;198;48.752;9.180;2022-07-29T08:20:31;24.70;99.90
423;DHT22;198;48.752;9.180;2022-07-29T08:23:01;24.80;99.90
423;DHT22;198;48.752;9.180;2022-07-29T08:25:26;25.00;99.90
423;DHT22;198;48.752;9.180;2022-07-29T08:27:52;25.20;99.90
423;DHT22;198;48.752;9.180;2022-07-29T08:30:17;25.40;99.90
423;DHT22;198;48.752;9.180;2022-07-29T08:32:43;25.60;99.90
423;DHT22;198;48.752;9.180;2022-07-29T08:35:09;25.60;99.50
423;DHT22;198;48.752;9.180;2022-07-29T08:37:34;25.60;99.10
423;DHT22;198;48.752;9.180;2022-07-29T08:40:00;25.80;98.80
423;DHT22;198;48.752;9.180;2022-07-29T08:42:25;26.10;97.60
423;DHT22;198;48.752;9.180;2022-07-29T08:44:51;26.20;95.00
423;DHT22;198;48.752;9.180;2022-07-29T08:47:18;26.40;95.90
423;DHT22;198;48.752;9.180;2022-07-29T08:49:44;26.40;93.40
423;DHT22;198;48.752;9.180;2022-07-29T08:52:12;26.40;93.90
423;DHT22;198;48.752;9.180;2022-07-29T08:54:40;26.50;91.60
423;DHT22;198;48.752;9.180;2022-07-29T08:57:09;26.40;89.00
423;DHT22;198;48.752;9.180;2022-07-29T08:59:35;26.40;89.00
423;DHT22;198;48.752;9.180;2022-07-29T09:02:03;26.50;87.90
423;DHT22;198;48.752;9.180;2022-07-29T09:04:34;26.60;89.30
423;DHT22;198;48.752;9.180;2022-07-29T09:07:04;26.70;85.20
423;DHT22;198;48.752;9.180;2022-07-29T09:09:30;26.70;89.00
423;DHT22;198;48.752;9.180;2022-07-29T09:11:55;26.80;84.80
423;DHT22;198;48.752;9.180;2022-07-29T09:14:21;26.90;83.00
423;DHT22;198;48.752;9.180;2022-07-29T09:16:50;26.90;83.50
423;DHT22;198;48.752;9.180;2022-07-29T09:19:31;27.00;78.10
423;DHT22;198;48.752;9.180;2022-07-29T09:21:59;27.10;78.30
423;DHT22;198;48.752;9.180;2022-07-29T09:24:27;27.30;78.70
423;DHT22;198;48.752;9.180;2022-07-29T09:27:01;27.80;80.40
423;DHT22;198;48.752;9.180;2022-07-29T09:29:27;28.10;73.20
423;DHT22;198;48.752;9.180;2022-07-29T09:31:54;28.20;73.20
423;DHT22;198;48.752;9.180;2022-07-29T09:34:27;28.30;74.50
423;DHT22;198;48.752;9.180;2022-07-29T09:36:57;28.70;71.60
423;DHT22;198;48.752;9.180;2022-07-29T09:39:31;29.10;71.80
423;DHT22;198;48.752;9.180;2022-07-29T09:41:59;29.60;66.30
423;DHT22;198;48.752;9.180;2022-07-29T09:44:25;30.10;63.30
423;DHT22;198;48.752;9.180;2022-07-29T09:47:02;30.50;60.90
423;DHT22;198;48.752;9.180;2022-07-29T09:49:55;31.10;59.00
423;DHT22;198;48.752;9.180;2022-07-29T09:52:28;31.30;55.00
423;DHT22;198;48.752;9.180;2022-07-29T09:55:07;31.50;54.10
423;DHT22;198;48.752;9.180;2022-07-29T09:57:33;31.60;52.70
423;DHT22;198;48.752;9.180;2022-07-29T10:00:19;32.10;52.80
423;DHT22;198;48.752;9.180;2022-07-29T10:02:47;32.90;49.60
423;DHT22;198;48.752;9.180;2022-07-29T10:05:26;33.40;49.20
423;DHT22;198;48.752;9.180;2022-07-29T10:07:57;33.80;48.00
423;DHT22;198;48.752;9.180;2022-07-29T10:10:38;33.90;46.40
423;DHT22;198;48.752;9.180;2022-07-29T10:13:05;33.80;45.00
423;DHT22;198;48.752;9.180;2022-07-29T10:15:34;33.40;44.80
423;DHT22;198;48.752;9.180;2022-07-29T10:18:05;33.00;44.80
423;DHT22;198;48.752;9.180;2022-07-29T10:20:31;32.60;46.20
423;DHT22;198;48.752;9.180;2022-07-29T10:22:56;32.10;48.60
423;DHT22;198;48.752;9.180;2022-07-29T10:25:23;31.90;49.90
423;DHT22;198;48.752;9.180;2022-07-29T10:27:49;32.00;51.80
423;DHT22;198;48.752;9.180;2022-07-29T10:30:16;32.80;52.00
423;DHT22;198;48.752;9.180;2022-07-29T10:40:57;30.70;55.10
423;DHT22;198;48.752;9.180;2022-07-29T10:43:47;30.10;57.60
423;DHT22;198;48.752;9.180;2022-07-29T10:46:14;29.60;61.20
423;DHT22;198;48.752;9.180;2022-07-29T10:51:50;28.40;64.90
423;DHT22;198;48.752;9.180;2022-07-29T11:02:45;25.10;99.90
423;DHT22;198;48.752;9.180;2022-07-29T11:05:17;24.10;99.90
423;DHT22;198;48.752;9.180;2022-07-29T11:08:23;23.20;99.90
423;DHT22;198;48.752;9.180;2022-07-29T11:10:50;22.30;99.90
423;DHT22;198;48.752;9.180;2022-07-29T11:16:11;21.20;99.90
423;DHT22;198;48.752;9.180;2022-07-29T11:21:40;20.60;99.90
423;DHT22;198;48.752;9.180;2022-07-29T11:26:41;20.50;99.90
423;DHT22;198;48.752;9.180;2022-07-29T11:29:19;20.40;99.90
423;DHT22;198;48.752;9.180;2022-07-29T11:31:48;20.40;99.90
423;DHT22;198;48.752;9.180;2022-07-29T11:34:30;20.30;99.90
423;DHT22;198;48.752;9.180;2022-07-29T11:39:36;20.30;99.90
423;DHT22;198;48.752;9.180;2022-07-29T11:44:54;20.50;99.90
423;DHT22;198;48.752;9.180;2022-07-29T11:47:21;20.50;99.90
423;DHT22;198;48.752;9.180;2022-07-29T11:49:47;20.60;99.90
423;DHT22;198;48.752;9.180;2022-07-29T11:52:13;20.70;99.90
423;DHT22;198;48.752;9.180;2022-07-29T11:54:42;20.70;99.90
423;DHT22;198;48.752;9.180;2022-07-29T11:57:08;20.70;99.90
423;DHT22;198;48.752;9.180;2022-07-29T11:59:40;20.70;99.90
423;DHT22;198;48.752;9.180;2022-07-29T12:02:07;20.80;99.90
423;DHT22;198;48.752;9.180;2022-07-29T12:04:33;21.00;99.90
423;DHT22;198;48.752;9.180;2022-07-29T12:06:59;21.10;99.90
423;DHT22;198;48.752;9.180;2022-07-29T12:09:25;21.20;99.90
423;DHT22;198;48.752;9.180;2022-07-29T12:11:57;21.20;99.90
423;DHT22;198;48.752;9.180;2022-07-29T12:14:33;21.30;99.90
423;DHT22;198;48.752;9.180;2022-07-29T12:16:59;21.40;99.90
423;DHT22;198;48.752;9.180;2022-07-29T12:19:26;21.60;99.90
423;DHT22;198;48.752;9.180;2022-07-29T12:21:55;21.70;99.90
423;DHT22;198;48.752;9.180;2022-07-29T12:24:23;21.80;99.90
423;DHT22;198;48.752;9.180;2022-07-29T12:26:57;22.10;99.90
423;DHT22;198;48.752;9.180;2022-07-29T12:29:23;22.60;99.90
423;DHT22;198;48.752;9.180;2022-07-29T12:31:53;23.20;99.90
423;DHT22;198;48.752;9.180;2022-07-29T12:34:22;23.50;99.90
423;DHT22;198;48.752;9.180;2022-07-29T12:36:48;23.60;99.90
423;DHT22;198;48.752;9.180;2022-07-29T12:39:15;23.60;99.90
423;DHT22;198;48.752;9.180;2022-07-29T12:41:41;23.40;99.90
423;DHT22;198;48.752;9.180;2022-07-29T12:44:07;23.30;99.90
423;DHT22;198;48.752;9.180;2022-07-29T12:46:32;23.20;99.90
423;DHT22;198;48.752;9.180;2022-07-29T12:48:58;23.10;99.90
423;DHT22;198;48.752;9.180;2022-07-29T12:51:33;22.90;99.90
423;DHT22;198;48.752;9.180;2022-07-29T12:54:17;22.80;99.90
423;DHT22;198;48.752;9.180;2022-07-29T12:56:44;22.60;99.90
423;DHT22;198;48.752;9.180;2022-07-29T12:59:18;22.50;99.90
423;DHT22;198;48.752;9.180;2022-07-29T13:01:45;22.40;99.90
423;DHT22;198;48.752;9.180;2022-07-29T13:04:27;22.30;99.90
423;DHT22;198;48.752;9.180;2022-07-29T13:07:01;22.40;99.90
423;DHT22;198;48.752;9.180;2022-07-29T13:09:37;22.30;99.90
423;DHT22;198;48.752;9.180;2022-07-29T13:12:07;22.30;99.90
423;DHT22;198;48.752;9.180;2022-07-29T13:14:39;22.30;99.90
423;DHT22;198;48.752;9.180;2022-07-29T13:17:10;22.10;99.90
423;DHT22;198;48.752;9.180;2022-07-29T13:19:39;21.90;99.90
423;DHT22;198;48.752;9.180;2022-07-29T13:22:15;21.90;99.90
423;DHT22;198;48.752;9.180;2022-07-29T13:24:51;21.80;99.90
423;DHT22;198;48.752;9.180;2022-07-29T13:27:19;21.70;99.90
423;DHT22;198;48.752;9.180;2022-07-29T13:29:44;21.70;99.90
423;DHT22;198;48.752;9.180;2022-07-29T13:32:11;21.80;99.90
423;DHT22;198;48.752;9.180;2022-07-29T13:34:37;21.70;99.90
423;DHT22;198;48.752;9.180;2022-07-29T13:37:03;21.80;99.90
423;DHT22;198;48.752;9.180;2022-07-29T13:39:28;21.80;99.90
423;DHT22;198;48.752;9.180;2022-07-29T13:41:54;21.90;99.90
423;DHT22;198;48.752;9.180;2022-07-29T13:44:19;22.00;99.90
423;DHT22;198;48.752;9.180;2022-07-29T13:46:45;22.20;99.90
423;DHT22;198;48.752;9.180;2022-07-29T13:49:10;22.20;99.90
423;DHT22;198;48.752;9.180;2022-07-29T13:51:37;22.20;99.90
423;DHT22;198;48.752;9.180;2022-07-29T13:54:02;22.30;99.90
423;DHT22;198;48.752;9.180;2022-07-29T13:56:28;22.50;99.90
423;DHT22;198;48.752;9.180;2022-07-29T13:58:53;22.80;99.90
423;DHT22;198;48.752;9.180;2022-07-29T14:01:19;23.20;99.90
423;DHT22;198;48.752;9.180;2022-07-29T14:03:44;23.60;99.90
423;DHT22;198;48.752;9.180;2022-07-29T14:06:10;24.00;99.90
423;DHT22;198;48.752;9.180;2022-07-29T14:08:36;24.20;99.90
423;DHT22;198;48.752;9.180;2022-07-29T14:11:01;24.50;99.90
423;DHT22;198;48.752;9.180;2022-07-29T14:13:27;24.60;99.90
423;DHT22;198;48.752;9.180;2022-07-29T14:15:52;24.60;99.90
423;DHT22;198;48.752;9.180;2022-07-29T14:18:18;24.80;99.90
423;DHT22;198;48.752;9.180;2022-07-29T14:20:44;25.00;99.90
423;DHT22;198;48.752;9.180;2022-07-29T14:23:09;25.10;99.90
423;DHT22;198;48.752;9.180;2022-07-29T14:25:35;25.30;99.90
423;DHT22;198;48.752;9.180;2022-07-29T14:28:01;25.40;99.90
423;DHT22;198;48.752;9.180;2022-07-29T14:30:26;25.50;99.90
423;DHT22;198;48.752;9.180;2022-07-29T14:32:52;25.60;99.90
423;DHT22;198;48.752;9.180;2022-07-29T14:35:17;25.80;99.90
423;DHT22;198;48.752;9.180;2022-07-29T14:37:43;25.90;99.90
423;DHT22;198;48.752;9.180;2022-07-29T14:40:09;26.00;99.90
423;DHT22;198;48.752;9.180;2022-07-29T14:42:35;26.00;99.90
423;DHT22;198;48.752;9.180;2022-07-29T14:45:01;26.00;99.90
423;DHT22;198;48.752;9.180;2022-07-29T14:47:27;26.00;99.90
423;DHT22;198;48.752;9.180;2022-07-29T14:49:52;25.90;99.90
423;DHT22;198;48.752;9.180;2022-07-29T14:52:18;25.90;99.90
423;DHT22;198;48.752;9.180;2022-07-29T14:54:43;25.80;99.90
423;DHT22;198;48.752;9.180;2022-07-29T14:57:09;25.90;99.90
423;DHT22;198;48.752;9.180;2022-07-29T14:59:34;25.90;99.90
423;DHT22;198;48.752;9.180;2022-07-29T15:02:00;26.00;99.90
423;DHT22;198;48.752;9.180;2022-07-29T15:04:25;26.10;99.90
423;DHT22;198;48.752;9.180;2022-07-29T15:06:51;26.20;99.90
423;DHT22;198;48.752;9.180;2022-07-29T15:09:17;26.30;99.90
423;DHT22;198;48.752;9.180;2022-07-29T15:11:43;26.20;99.90
423;DHT22;198;48.752;9.180;2022-07-29T15:14:09;26.20;99.90
423;DHT22;198;48.752;9.180;2022-07-29T15:16:38;26.20;99.90
423;DHT22;198;48.752;9.180;2022-07-29T15:19:05;26.20;99.90
423;DHT22;198;48.752;9.180;2022-07-29T15:21:30;26.30;99.90
423;DHT22;198;48.752;9.180;2022-07-29T15:23:56;26.40;99.90
423;DHT22;198;48.752;9.180;2022-07-29T15:26:21;26.40;99.90
423;DHT22;198;48.752;9.180;2022-07-29T15:28:47;26.40;99.90
423;DHT22;198;48.752;9.180;2022-07-29T15:31:12;26.30;99.90
423;DHT22;198;48.752;9.180;2022-07-29T15:33:39;26.20;99.90
423;DHT22;198;48.752;9.180;2022-07-29T15:36:04;26.10;99.90
423;DHT22;198;48.752;9.180;2022-07-29T15:38:30;25.90;99.90
423;DHT22;198;48.752;9.180;2022-07-29T15:40:56;25.70;99.90
423;DHT22;198;48.752;9.180;2022-07-29T15:43:22;25.70;99.90
423;DHT22;198;48.752;9.180;2022-07-29T15:45:48;25.60;99.90
423;DHT22;198;48.752;9.180;2022-07-29T15:48:32;25.50;99.90
423;DHT22;198;48.752;9.180;2022-07-29T15:50:59;25.30;99.90
423;DHT22;198;48.752;9.180;2022-07-29T15:53:24;25.30;99.90
423;DHT22;198;48.752;9.180;2022-07-29T15:55:51;25.30;99.90
423;DHT22;198;48.752;9.180;2022-07-29T15:58:16;25.30;99.90
423;DHT22;198;48.752;9.180;2022-07-29T16:00:42;25.30;99.90
423;DHT22;198;48.752;9.180;2022-07-29T16:03:07;25.30;99.90
423;DHT22;198;48.752;9.180;2022-07-29T16:05:33;25.30;99.90
423;DHT22;198;48.752;9.180;2022-07-29T16:07:59;25.30;99.90
423;DHT22;198;48.752;9.180;2022-07-29T16:10:25;25.40;99.90
423;DHT22;198;48.752;9.180;2022-07-29T16:12:50;25.30;99.90
423;DHT22;198;48.752;9.180;2022-07-29T16:15:16;25.20;99.90
423;DHT22;198;48.752;9.180;2022-07-29T16:17:42;25.10;99.90
423;DHT22;198;48.752;9.180;2022-07-29T16:20:07;25.00;99.90
423;DHT22;198;48.752;9.180;2022-07-29T16:22:33;24.80;99.90
423;DHT22;198;48.752;9.180;2022-07-29T16:24:59;24.80;99.90
423;DHT22;198;48.752;9.180;2022-07-29T16:27:24;24.70;99.90
423;DHT22;198;48.752;9.180;2022-07-29T16:29:55;24.60;99.90
423;DHT22;198;48.752;9.180;2022-07-29T16:32:21;24.70;99.90
423;DHT22;198;48.752;9.180;2022-07-29T16:34:46;24.70;99.90
423;DHT22;198;48.752;9.180;2022-07-29T16:37:12;24.70;99.90
423;DHT22;198;48.752;9.180;2022-07-29T16:39:37;24.70;99.90
423;DHT22;198;48.752;9.180;2022-07-29T16:42:04;24.60;99.90
423;DHT22;198;48.752;9.180;2022-07-29T16:44:29;24.60;99.90
423;DHT22;198;48.752;9.180;2022-07-29T16:46:55;24.40;99.90
423;DHT22;198;48.752;9.180;2022-07-29T16:49:20;24.30;99.90
423;DHT22;198;48.752;9.180;2022-07-29T16:51:46;24.30;99.90
423;DHT22;198;48.752;9.180;2022-07-29T16:54:12;24.20;99.90
423;DHT22;198;48.752;9.180;2022-07-29T16:56:37;24.20;99.90
423;DHT22;198;48.752;9.180;2022-07-29T16:59:03;24.20;99.90
423;DHT22;198;48.752;9.180;2022-07-29T17:01:28;24.10;99.90
423;DHT22;198;48.752;9.180;2022-07-29T17:03:54;24.00;99.90
423;DHT22;198;48.752;9.180;2022-07-29T17:06:36;23.90;99.90
423;DHT22;198;48.752;9.180;2022-07-29T17:09:06;23.80;99.90
423;DHT22;198;48.752;9.180;2022-07-29T17:11:33;23.80;99.90
423;DHT22;198;48.752;9.180;2022-07-29T17:13:59;23.80;99.90